createdAt,value
2017-11-10T00:02:02.696Z,18.40
2017-11-10T00:07:32.110Z,19.77
2017-11-10T00:13:00.499Z,19.57
2017-11-10T00:18:28.888Z,26.60
2017-11-10T00:23:57.823Z,18.53
2017-11-10T00:29:26.751Z,20.10
2017-11-10T00:34:55.661Z,20.43
2017-11-10T00:40:26.777Z,18.40
2017-11-10T00:45:55.710Z,20.00
2017-11-10T00:51:25.577Z,20.67
2017-11-10T00:56:54.495Z,19.27
2017-11-10T01:02:22.633Z,19.20
2017-11-10T01:07:51.558Z,25.13
2017-11-10T01:13:19.722Z,20.50
2017-11-10T01:18:47.862Z,21.90
2017-11-10T01:24:16.009Z,17.97
2017-11-10T01:29:44.169Z,18.90
2017-11-10T01:35:12.301Z,19.10
2017-11-10T01:40:40.646Z,20.30
2017-11-10T01:46:09.011Z,16.60
2017-11-10T01:51:37.367Z,18.30
2017-11-10T01:57:05.859Z,16.70
2017-11-10T02:02:34.015Z,17.00
2017-11-10T02:08:02.173Z,17.60
2017-11-10T02:13:30.350Z,18.47
2017-11-10T02:18:58.497Z,18.83
2017-11-10T02:24:26.680Z,20.90
2017-11-10T02:29:55.648Z,18.37
2017-11-10T02:35:23.797Z,22.07
2017-11-10T02:40:59.138Z,21.27
2017-11-10T02:46:27.291Z,16.37
2017-11-10T02:51:58.742Z,15.73
2017-11-10T02:57:27.664Z,19.20
2017-11-10T03:02:56.878Z,21.70
2017-11-10T03:08:28.825Z,17.57
2017-11-10T03:13:57.753Z,19.23
2017-11-10T03:19:25.896Z,18.17
2017-11-10T03:24:54.043Z,17.53
2017-11-10T03:30:22.205Z,16.57
2017-11-10T03:35:50.383Z,15.67
2017-11-10T03:41:18.503Z,20.13
2017-11-10T03:46:46.632Z,19.90
2017-11-10T03:52:14.781Z,16.50
2017-11-10T03:57:42.926Z,16.10
2017-11-10T04:03:11.999Z,18.30
2017-11-10T04:08:40.394Z,15.57
2017-11-10T04:14:09.587Z,18.97
2017-11-10T04:19:37.740Z,17.53
2017-11-10T04:25:05.893Z,14.53
2017-11-10T04:30:34.029Z,17.97
2017-11-10T04:36:02.165Z,14.60
2017-11-10T04:41:30.324Z,17.23
2017-11-10T04:47:10.375Z,15.80
2017-11-10T04:52:38.512Z,13.90
2017-11-10T04:58:06.654Z,15.23
2017-11-10T05:03:34.791Z,13.90
2017-11-10T05:09:03.764Z,15.87
2017-11-10T05:14:31.917Z,14.93
2017-11-10T05:20:00.099Z,13.77
2017-11-10T05:25:28.336Z,17.17
2017-11-10T05:30:58.543Z,13.53
2017-11-10T05:36:26.705Z,15.30
2017-11-10T05:41:55.091Z,12.40
2017-11-10T05:47:23.234Z,12.40
2017-11-10T05:52:58.734Z,12.47
2017-11-10T05:58:27.705Z,12.50
2017-11-10T06:03:55.864Z,12.80
2017-11-10T06:09:24.765Z,13.00
2017-11-10T06:14:52.918Z,13.00
2017-11-10T06:20:21.816Z,13.57
2017-11-10T06:25:49.962Z,14.00
2017-11-10T06:31:18.096Z,13.03
2017-11-10T06:36:46.986Z,14.17
2017-11-10T06:42:15.140Z,13.60
2017-11-10T06:47:43.267Z,13.83
2017-11-10T06:53:12.192Z,13.00
2017-11-10T06:58:40.337Z,13.67
2017-11-10T07:04:09.247Z,14.70
2017-11-10T07:09:37.381Z,13.20
2017-11-10T07:15:05.528Z,15.17
2017-11-10T07:20:33.672Z,17.57
2017-11-10T07:26:01.849Z,18.47
2017-11-10T07:31:30.828Z,15.90
2017-11-10T07:36:58.968Z,15.63
2017-11-10T07:42:27.151Z,15.70
2017-11-10T07:47:55.300Z,12.90
2017-11-10T07:53:23.458Z,15.27
2017-11-10T07:58:52.370Z,14.97
2017-11-10T08:04:20.506Z,14.97
2017-11-10T08:09:49.426Z,15.47
2017-11-10T08:15:17.548Z,16.10
2017-11-10T08:20:45.692Z,14.57
2017-11-10T08:26:14.600Z,16.10
2017-11-10T08:31:42.746Z,14.63
2017-11-10T08:37:11.665Z,16.93
2017-11-10T08:42:39.804Z,14.73
2017-11-10T08:48:08.712Z,16.37
2017-11-10T08:53:36.860Z,18.07
2017-11-10T08:59:05.785Z,19.60
2017-11-10T09:04:33.917Z,18.73
2017-11-10T09:10:02.828Z,18.77
2017-11-10T09:15:31.001Z,19.73
2017-11-10T09:20:59.182Z,20.67
2017-11-10T09:26:27.347Z,15.70
2017-11-10T09:32:06.064Z,19.63
2017-11-10T09:37:40.701Z,19.83
2017-11-10T09:43:26.667Z,19.00
2017-11-10T09:49:00.441Z,19.30
2017-11-10T09:54:31.889Z,20.37
2017-11-10T10:06:34.986Z,18.67
2017-11-10T10:12:07.679Z,21.47
2017-11-10T10:17:48.713Z,21.63
2017-11-10T10:23:16.859Z,20.90
2017-11-10T10:28:46.279Z,19.70
2017-11-10T10:34:15.174Z,18.10
2017-11-10T10:39:43.312Z,19.90
2017-11-10T10:45:11.449Z,17.17
2017-11-10T10:50:40.355Z,22.23
2017-11-10T10:56:08.513Z,20.30
2017-11-10T11:01:37.434Z,19.20
2017-11-10T11:07:05.576Z,18.90
2017-11-10T11:12:34.481Z,21.43
2017-11-10T11:18:02.624Z,20.17
2017-11-10T11:23:32.162Z,12.80
2017-11-10T11:29:00.292Z,16.27
2017-11-10T11:34:29.229Z,20.20
2017-11-10T11:39:58.242Z,14.03
2017-11-10T11:45:26.392Z,17.40
2017-11-10T11:50:54.538Z,16.87
2017-11-10T11:56:22.686Z,17.83
2017-11-10T12:01:51.332Z,20.23
2017-11-10T12:07:19.469Z,15.50
2017-11-10T12:12:48.386Z,15.53
2017-11-10T12:18:16.528Z,18.00
2017-11-10T12:23:45.494Z,20.90
2017-11-10T12:29:13.635Z,18.87
2017-11-10T12:34:41.795Z,16.30
2017-11-10T12:40:09.941Z,18.37
2017-11-10T12:45:38.839Z,19.23
2017-11-10T12:51:06.977Z,12.47
2017-11-10T12:56:35.124Z,18.47
2017-11-10T13:02:04.182Z,20.03
2017-11-10T13:07:32.365Z,15.00
2017-11-10T13:13:01.288Z,19.03
2017-11-10T13:18:29.440Z,15.27
2017-11-10T13:23:57.610Z,16.70
2017-11-10T13:29:25.768Z,19.07
2017-11-10T13:34:54.672Z,15.57
2017-11-10T13:40:22.827Z,19.47
2017-11-10T13:45:52.462Z,12.13
2017-11-10T13:51:20.612Z,16.97
2017-11-10T13:56:48.754Z,12.00
2017-11-10T14:02:16.882Z,18.27
2017-11-10T14:07:45.047Z,19.70
2017-11-10T14:13:13.188Z,17.63
2017-11-10T14:18:41.329Z,17.10
2017-11-10T14:24:09.489Z,12.77
2017-11-10T14:29:37.640Z,11.87
2017-11-10T14:35:06.565Z,18.50
2017-11-10T14:40:34.916Z,13.20
2017-11-10T14:46:03.265Z,18.17
2017-11-10T14:51:31.405Z,14.70
2017-11-10T14:57:00.495Z,18.00
2017-11-10T15:02:28.875Z,16.77
2017-11-10T15:07:57.069Z,14.50
2017-11-10T15:13:25.209Z,16.53
2017-11-10T15:18:53.585Z,15.27
2017-11-10T15:24:21.745Z,12.57
2017-11-10T15:29:50.004Z,16.20
2017-11-10T15:35:18.180Z,16.67
2017-11-10T15:40:46.318Z,14.10
2017-11-10T15:46:14.469Z,16.17
2017-11-10T15:51:43.495Z,16.20
2017-11-10T15:57:12.419Z,14.60
2017-11-10T16:02:40.561Z,16.70
2017-11-10T16:08:08.696Z,15.40
2017-11-10T16:13:36.838Z,11.47
2017-11-10T16:19:04.978Z,11.37
2017-11-10T16:24:33.141Z,16.00
2017-11-10T16:30:02.087Z,13.30
2017-11-10T16:35:30.265Z,20.20
2017-11-10T16:40:58.417Z,17.77
2017-11-10T16:46:27.360Z,14.90
2017-11-10T16:51:55.501Z,13.80
2017-11-10T16:57:30.336Z,12.40
2017-11-10T17:02:59.022Z,12.30
2017-11-10T17:08:30.644Z,11.00
2017-11-10T17:13:58.811Z,11.63
2017-11-10T17:19:27.924Z,12.67
2017-11-10T17:24:56.052Z,9.80
2017-11-10T17:30:24.180Z,8.63
2017-11-10T17:35:59.532Z,9.40
2017-11-10T17:41:27.665Z,7.40
2017-11-10T17:46:55.794Z,7.70
2017-11-10T17:52:25.877Z,8.17
2017-11-10T17:57:54.037Z,6.33
2017-11-10T18:03:22.168Z,5.53
2017-11-10T18:08:50.332Z,5.47
2017-11-10T18:14:19.254Z,4.00
2017-11-10T18:19:47.409Z,5.33
2017-11-10T18:25:17.549Z,6.07
2017-11-10T18:30:45.688Z,3.20
2017-11-10T18:36:24.445Z,5.60
2017-11-10T18:41:53.440Z,4.23
2017-11-10T18:47:21.661Z,3.27
2017-11-10T18:53:05.553Z,4.30
2017-11-10T18:58:41.142Z,3.40
2017-11-10T19:04:09.317Z,5.77
2017-11-10T19:09:37.466Z,2.60
2017-11-10T19:15:05.694Z,6.30
2017-11-10T19:20:33.869Z,2.40
2017-11-10T19:26:02.016Z,3.67
2017-11-10T19:31:33.480Z,3.47
2017-11-10T19:37:01.639Z,3.20
2017-11-10T19:42:40.849Z,2.67
2017-11-10T19:48:09.043Z,1.63
2017-11-10T19:53:37.193Z,2.93
2017-11-10T19:59:06.134Z,2.40
2017-11-10T20:04:35.286Z,2.73
2017-11-10T20:10:04.209Z,3.10
2017-11-10T20:15:39.171Z,2.87
2017-11-10T20:21:07.396Z,3.30
2017-11-10T20:26:35.566Z,4.90
2017-11-10T20:32:03.744Z,3.90
2017-11-10T20:37:31.893Z,3.40
2017-11-10T20:43:00.836Z,2.77
2017-11-10T20:48:32.681Z,6.63
2017-11-10T20:54:00.903Z,3.90
2017-11-10T20:59:30.764Z,4.33
2017-11-10T21:04:58.928Z,1.93
2017-11-10T21:10:32.870Z,3.50
2017-11-10T21:16:01.029Z,3.43
2017-11-10T21:21:29.174Z,3.30
2017-11-10T21:26:57.487Z,3.40
2017-11-10T21:32:30.669Z,2.13
2017-11-10T21:37:58.874Z,2.17
2017-11-10T21:43:27.042Z,2.20
2017-11-10T21:49:26.618Z,2.20
2017-11-10T21:54:55.757Z,2.23
2017-11-10T22:00:23.908Z,2.67
2017-11-10T22:05:52.067Z,2.50
2017-11-10T22:11:21.922Z,1.73
2017-11-10T22:16:50.122Z,2.73
2017-11-10T22:22:18.301Z,1.97
2017-11-10T22:27:46.461Z,1.87
2017-11-10T22:33:22.689Z,3.10
2017-11-10T22:38:51.694Z,3.07
2017-11-10T22:44:20.900Z,3.00
2017-11-10T22:49:49.175Z,2.43
2017-11-10T22:55:18.123Z,2.40
2017-11-10T23:00:48.108Z,2.33
2017-11-10T23:06:18.215Z,4.12
2017-11-10T23:12:03.916Z,2.47
2017-11-10T23:17:32.841Z,3.43
2017-11-10T23:23:01.790Z,2.90
2017-11-10T23:28:55.767Z,3.27
2017-11-10T23:34:23.925Z,3.83
2017-11-10T23:39:52.841Z,2.53
2017-11-10T23:45:20.994Z,4.73
2017-11-10T23:50:49.917Z,4.77
2017-11-10T23:56:19.072Z,3.17
